Rowley, IA

8:48 PM CST on November 26, 2014 (GMT -0600)
Terrace Drive SE | Change Station
CLOSE
Current Station
Personal Weather Station
Location: Independence, IA
Elevation: 940 ft
Nearby Weather Stations

Elev 940 ft 42.47 °N, 91.88 °W | Updated 21 seconds ago

Overcast
Overcast
25.0 °F
Feels Like 17 °F
N
7.0
Wind Variable Wind from NE
Gusts 7.0 mph

Today
High -- | Low -- °F
--% Chance of Precip.
Yesterday
High -- | Low -- °F
Precip. -- in
7:11 AM 4:37 PM
Waxing Crescent, 25% visible
Pressure 30.24 in
Visibility 5.0 miles
Clouds Scattered Clouds 200 ft
Scattered Clouds 800 ft
Overcast 1600 ft
Windchill 17 °F
Dew Point 23 °F
Humidity 92%
Rainfall 0.00 in
Snow Depth Not available.
UV 0 out of 12
Pollen .10 out of 12
Air Quality Not available.
Flu Activity Not available.
METAR KVTI 270235Z AUTO 00000KT 5SM BR SCT002 SCT008 OVC016 M02/M04 A3024 RMK AO2 T10231041

More Conditions Fewer Conditions

Pressure 30.24 in
Visibility 5.0 miles
Clouds Scattered Clouds 200 ft
Scattered Clouds 800 ft
Overcast 1600 ft
Windchill 17 °F
Dew Point 23 °F
Humidity 92%
Rainfall 0.00 in
Snow Depth Not available.
UV 0 out of 12
Pollen .10 out of 12
Air Quality Not available.
Flu Activity Not available.
METAR KVTI 270235Z AUTO 00000KT 5SM BR SCT002 SCT008 OVC016 M02/M04 A3024 RMK AO2 T10231041

More Conditions Fewer Conditions

10-Day Weather Forecast

Almanac

Astronomy

Nov. 26, 2014 Rise Set
Actual Time
Civil Twilight
Nautical Twilight
Astronomical Twilight
Moon
Length of Visible Light
Length of Day
Tomorrow will be .
, % of the Moon is Illuminated

Today's Extremes

State Highs State Lows

Community

WunderPhotos

Upload Photos

1,773,949 photos uploaded!

WunderBlogs® & News

Nearby

Air Quality

  Air Quality AQ Index Pollutant
Not available.

Snow Depth

Station Depth Elevation

Earthquake Activity

City Distance Mag. Time & Date
Minimum magnitude displayed is 2.5.

Coastal Water Temperatures

Place Temperature

Nearby Weather Stations